sensor_id;sensor_type;location;lat;lon;timestamp;pressure;altitude;pressure_sealevel;temperature;humidity
50292;BME280;36190;54.980;73.388;2023-02-22T00:00:15;99927.72;;;-1.50;83.96
50292;BME280;36190;54.980;73.388;2023-02-22T00:02:49;99930.41;;;-1.52;84.13
50292;BME280;36190;54.980;73.388;2023-02-22T00:05:18;99935.56;;;-1.50;84.03
50292;BME280;36190;54.980;73.388;2023-02-22T00:07:46;99934.63;;;-1.49;84.27
50292;BME280;36190;54.980;73.388;2023-02-22T00:10:15;99935.75;;;-1.53;84.26
50292;BME280;36190;54.980;73.388;2023-02-22T00:12:46;99923.22;;;-1.48;84.48
50292;BME280;36190;54.980;73.388;2023-02-22T00:15:17;99921.53;;;-1.49;84.35
50292;BME280;36190;54.980;73.388;2023-02-22T00:17:45;99921.53;;;-1.49;84.38
50292;BME280;36190;54.980;73.388;2023-02-22T00:20:15;99886.66;;;-1.49;84.45
50292;BME280;36190;54.980;73.388;2023-02-22T00:22:45;99883.09;;;-1.48;84.71
50292;BME280;36190;54.980;73.388;2023-02-22T00:25:14;99899.44;;;-1.45;84.49
50292;BME280;36190;54.980;73.388;2023-02-22T00:27:43;99893.91;;;-1.40;84.75
50292;BME280;36190;54.980;73.388;2023-02-22T00:30:15;99884.81;;;-1.34;84.83
50292;BME280;36190;54.980;73.388;2023-02-22T00:32:44;99894.13;;;-1.30;84.93
50292;BME280;36190;54.980;73.388;2023-02-22T00:35:12;99888.47;;;-1.24;84.90
50292;BME280;36190;54.980;73.388;2023-02-22T00:37:40;99900.22;;;-1.17;84.85
50292;BME280;36190;54.980;73.388;2023-02-22T00:40:08;99879.69;;;-1.23;84.86
50292;BME280;36190;54.980;73.388;2023-02-22T00:42:37;99880.53;;;-1.09;84.83
50292;BME280;36190;54.980;73.388;2023-02-22T00:45:04;99888.25;;;-1.08;84.96
50292;BME280;36190;54.980;73.388;2023-02-22T00:47:34;99882.59;;;-1.15;85.11
50292;BME280;36190;54.980;73.388;2023-02-22T00:50:01;99894.13;;;-1.04;85.01
50292;BME280;36190;54.980;73.388;2023-02-22T00:52:29;99889.72;;;-1.04;85.13
50292;BME280;36190;54.980;73.388;2023-02-22T00:54:56;99892.03;;;-0.99;85.28
50292;BME280;36190;54.980;73.388;2023-02-22T00:57:24;99887.19;;;-0.92;85.27
50292;BME280;36190;54.980;73.388;2023-02-22T00:59:52;99894.00;;;-0.90;85.10
50292;BME280;36190;54.980;73.388;2023-02-22T01:02:19;99884.25;;;-0.88;85.25
50292;BME280;36190;54.980;73.388;2023-02-22T01:04:48;99884.06;;;-0.85;85.18
50292;BME280;36190;54.980;73.388;2023-02-22T01:07:16;99884.88;;;-0.84;85.07
50292;BME280;36190;54.980;73.388;2023-02-22T01:09:43;99861.44;;;-0.86;85.15
50292;BME280;36190;54.980;73.388;2023-02-22T01:12:11;99885.09;;;-0.87;85.19
50292;BME280;36190;54.980;73.388;2023-02-22T01:14:40;99875.69;;;-0.90;85.38
50292;BME280;36190;54.980;73.388;2023-02-22T01:17:08;99878.81;;;-0.85;85.24
50292;BME280;36190;54.980;73.388;2023-02-22T01:19:35;99880.38;;;-0.82;85.24
50292;BME280;36190;54.980;73.388;2023-02-22T01:22:08;99873.25;;;-0.80;85.19
50292;BME280;36190;54.980;73.388;2023-02-22T01:24:36;99867.78;;;-0.77;84.86
50292;BME280;36190;54.980;73.388;2023-02-22T01:27:03;99869.59;;;-0.77;84.91
50292;BME280;36190;54.980;73.388;2023-02-22T01:29:31;99864.13;;;-0.74;85.03
50292;BME280;36190;54.980;73.388;2023-02-22T01:31:58;99845.69;;;-0.73;85.15
50292;BME280;36190;54.980;73.388;2023-02-22T01:34:26;99852.38;;;-0.68;85.28
50292;BME280;36190;54.980;73.388;2023-02-22T01:36:54;99838.31;;;-0.67;85.06
50292;BME280;36190;54.980;73.388;2023-02-22T01:39:24;99843.97;;;-0.61;85.23
50292;BME280;36190;54.980;73.388;2023-02-22T01:41:52;99833.25;;;-0.58;85.06
50292;BME280;36190;54.980;73.388;2023-02-22T01:44:26;99812.97;;;-0.67;85.24
50292;BME280;36190;54.980;73.388;2023-02-22T01:46:54;99828.66;;;-0.54;85.12
50292;BME280;36190;54.980;73.388;2023-02-22T01:49:22;99833.78;;;-0.52;84.94
50292;BME280;36190;54.980;73.388;2023-02-22T01:51:52;99834.72;;;-0.53;85.15
50292;BME280;36190;54.980;73.388;2023-02-22T01:54:26;99843.53;;;-0.54;85.00
50292;BME280;36190;54.980;73.388;2023-02-22T01:57:02;99851.91;;;-0.49;85.39
50292;BME280;36190;54.980;73.388;2023-02-22T01:59:33;99848.31;;;-0.48;85.39
50292;BME280;36190;54.980;73.388;2023-02-22T02:02:02;99845.28;;;-0.42;85.28
50292;BME280;36190;54.980;73.388;2023-02-22T02:04:31;99858.16;;;-0.39;85.26
50292;BME280;36190;54.980;73.388;2023-02-22T02:07:02;99826.47;;;-0.36;85.23
50292;BME280;36190;54.980;73.388;2023-02-22T02:09:36;99854.13;;;-0.32;85.29
50292;BME280;36190;54.980;73.388;2023-02-22T02:12:07;99851.50;;;-0.32;85.18
50292;BME280;36190;54.980;73.388;2023-02-22T02:14:35;99847.00;;;-0.30;84.93
50292;BME280;36190;54.980;73.388;2023-02-22T02:17:06;99851.41;;;-0.30;85.00
50292;BME280;36190;54.980;73.388;2023-02-22T02:19:41;99848.47;;;-0.25;85.04
50292;BME280;36190;54.980;73.388;2023-02-22T02:22:27;99816.44;;;-0.42;85.21
50292;BME280;36190;54.980;73.388;2023-02-22T02:25:24;99833.34;;;-0.22;84.93
50292;BME280;36190;54.980;73.388;2023-02-22T02:34:26;99848.22;;;-0.22;84.58
50292;BME280;36190;54.980;73.388;2023-02-22T02:37:01;99849.06;;;-0.22;84.52
50292;BME280;36190;54.980;73.388;2023-02-22T02:39:35;99845.59;;;-0.22;84.58
50292;BME280;36190;54.980;73.388;2023-02-22T02:42:08;99832.28;;;-0.19;84.43
50292;BME280;36190;54.980;73.388;2023-02-22T02:44:40;99821.66;;;-0.18;84.38
50292;BME280;36190;54.980;73.388;2023-02-22T02:47:12;99819.88;;;-0.17;84.40
50292;BME280;36190;54.980;73.388;2023-02-22T02:49:46;99811.50;;;-0.22;83.98
50292;BME280;36190;54.980;73.388;2023-02-22T02:52:16;99824.97;;;-0.27;83.84
50292;BME280;36190;54.980;73.388;2023-02-22T02:54:45;99816.72;;;-0.34;83.81
50292;BME280;36190;54.980;73.388;2023-02-22T02:57:12;99832.66;;;-0.37;83.92
50292;BME280;36190;54.980;73.388;2023-02-22T02:59:41;99823.34;;;-0.41;83.93
50292;BME280;36190;54.980;73.388;2023-02-22T03:02:24;99799.72;;;-0.52;83.83
50292;BME280;36190;54.980;73.388;2023-02-22T03:05:10;99800.00;;;-0.44;83.77
50292;BME280;36190;54.980;73.388;2023-02-22T03:07:48;99793.72;;;-0.54;83.76
50292;BME280;36190;54.980;73.388;2023-02-22T03:10:28;99792.56;;;-0.50;83.68
50292;BME280;36190;54.980;73.388;2023-02-22T03:13:08;99793.72;;;-0.54;83.71
50292;BME280;36190;54.980;73.388;2023-02-22T03:15:43;99800.16;;;-0.59;83.45
50292;BME280;36190;54.980;73.388;2023-02-22T03:18:22;99809.91;;;-0.61;83.87
50292;BME280;36190;54.980;73.388;2023-02-22T03:20:59;99797.00;;;-0.64;83.71
50292;BME280;36190;54.980;73.388;2023-02-22T03:23:31;99805.50;;;-0.60;83.76
50292;BME280;36190;54.980;73.388;2023-02-22T03:26:03;99812.91;;;-0.54;83.66
50292;BME280;36190;54.980;73.388;2023-02-22T03:28:32;99807.25;;;-0.48;83.47
50292;BME280;36190;54.980;73.388;2023-02-22T03:31:07;99784.25;;;-0.44;83.17
50292;BME280;36190;54.980;73.388;2023-02-22T03:33:39;99791.19;;;-0.43;83.22
50292;BME280;36190;54.980;73.388;2023-02-22T03:36:13;99789.16;;;-0.39;83.01
50292;BME280;36190;54.980;73.388;2023-02-22T03:38:43;99784.66;;;-0.37;82.95
50292;BME280;36190;54.980;73.388;2023-02-22T03:41:12;99770.69;;;-0.38;82.53
50292;BME280;36190;54.980;73.388;2023-02-22T03:43:46;99774.06;;;-0.36;82.67
50292;BME280;36190;54.980;73.388;2023-02-22T03:46:16;99780.97;;;-0.35;82.55
50292;BME280;36190;54.980;73.388;2023-02-22T03:48:48;99776.34;;;-0.31;82.51
50292;BME280;36190;54.980;73.388;2023-02-22T03:51:20;99771.69;;;-0.28;82.27
50292;BME280;36190;54.980;73.388;2023-02-22T03:53:48;99754.69;;;-0.22;82.26
50292;BME280;36190;54.980;73.388;2023-02-22T03:56:21;99762.53;;;-0.22;82.02
50292;BME280;36190;54.980;73.388;2023-02-22T03:58:50;99762.09;;;-0.16;82.16
50292;BME280;36190;54.980;73.388;2023-02-22T04:01:18;99758.03;;;-0.08;81.76
50292;BME280;36190;54.980;73.388;2023-02-22T04:03:48;99765.09;;;-0.09;81.42
50292;BME280;36190;54.980;73.388;2023-02-22T04:06:15;99754.13;;;-0.03;81.60
50292;BME280;36190;54.980;73.388;2023-02-22T04:08:44;99765.09;;;0.03;81.28
50292;BME280;36190;54.980;73.388;2023-02-22T04:11:12;99750.47;;;0.11;81.30
50292;BME280;36190;54.980;73.388;2023-02-22T04:13:39;99754.41;;;0.17;81.11
50292;BME280;36190;54.980;73.388;2023-02-22T04:16:07;99745.38;;;0.21;80.87
50292;BME280;36190;54.980;73.388;2023-02-22T04:18:34;99749.66;;;0.34;80.52
50292;BME280;36190;54.980;73.388;2023-02-22T04:21:02;99749.44;;;0.37;80.36
50292;BME280;36190;54.980;73.388;2023-02-22T04:23:30;99741.69;;;0.35;80.23
50292;BME280;36190;54.980;73.388;2023-02-22T04:25:59;99732.84;;;0.36;80.27
50292;BME280;36190;54.980;73.388;2023-02-22T04:28:28;99733.44;;;0.40;80.08
50292;BME280;36190;54.980;73.388;2023-02-22T04:30:55;99737.03;;;0.39;80.02
50292;BME280;36190;54.980;73.388;2023-02-22T04:33:23;99725.56;;;0.40;79.74
50292;BME280;36190;54.980;73.388;2023-02-22T04:35:50;99717.09;;;0.36;80.11
50292;BME280;36190;54.980;73.388;2023-02-22T04:38:18;99734.88;;;0.44;79.81
50292;BME280;36190;54.980;73.388;2023-02-22T04:40:45;99736.31;;;0.48;79.59
50292;BME280;36190;54.980;73.388;2023-02-22T04:43:14;99738.31;;;0.56;79.44
50292;BME280;36190;54.980;73.388;2023-02-22T04:45:42;99734.16;;;0.65;79.35
50292;BME280;36190;54.980;73.388;2023-02-22T04:48:09;99727.69;;;0.69;79.13
50292;BME280;36190;54.980;73.388;2023-02-22T04:50:37;99734.88;;;0.78;79.03
50292;BME280;36190;54.980;73.388;2023-02-22T04:53:05;99714.31;;;0.84;78.94
50292;BME280;36190;54.980;73.388;2023-02-22T04:55:33;99710.00;;;0.94;78.84
50292;BME280;36190;54.980;73.388;2023-02-22T04:58:00;99698.50;;;1.06;78.47
50292;BME280;36190;54.980;73.388;2023-02-22T05:00:29;99721.41;;;1.16;78.08
50292;BME280;36190;54.980;73.388;2023-02-22T05:02:59;99711.59;;;1.29;78.22
50292;BME280;36190;54.980;73.388;2023-02-22T05:05:26;99701.28;;;1.37;77.72
50292;BME280;36190;54.980;73.388;2023-02-22T05:07:54;99707.03;;;1.31;77.63
50292;BME280;36190;54.980;73.388;2023-02-22T05:10:22;99699.84;;;1.33;77.57
50292;BME280;36190;54.980;73.388;2023-02-22T05:12:49;99689.09;;;1.36;77.40
50292;BME280;36190;54.980;73.388;2023-02-22T05:15:19;99684.94;;;1.34;77.13
50292;BME280;36190;54.980;73.388;2023-02-22T05:17:48;99667.88;;;1.28;77.12
50292;BME280;36190;54.980;73.388;2023-02-22T05:20:20;99685.16;;;1.31;77.32
50292;BME280;36190;54.980;73.388;2023-02-22T05:22:48;99684.66;;;1.37;77.28
50292;BME280;36190;54.980;73.388;2023-02-22T05:25:17;99691.47;;;1.40;77.17
50292;BME280;36190;54.980;73.388;2023-02-22T05:27:49;99681.41;;;1.45;77.01
50292;BME280;36190;54.980;73.388;2023-02-22T05:30:23;99686.16;;;1.51;76.76
50292;BME280;36190;54.980;73.388;2023-02-22T05:32:52;99674.22;;;1.47;76.43
50292;BME280;36190;54.980;73.388;2023-02-22T05:35:22;99667.31;;;1.46;76.53
50292;BME280;36190;54.980;73.388;2023-02-22T05:37:50;99658.19;;;1.50;76.35
50292;BME280;36190;54.980;73.388;2023-02-22T05:40:18;99638.97;;;1.49;76.32
50292;BME280;36190;54.980;73.388;2023-02-22T05:42:46;99655.44;;;1.51;76.17
50292;BME280;36190;54.980;73.388;2023-02-22T05:45:14;99649.34;;;1.51;76.07
50292;BME280;36190;54.980;73.388;2023-02-22T05:47:42;99634.28;;;1.53;76.12
50292;BME280;36190;54.980;73.388;2023-02-22T05:50:11;99637.72;;;1.54;76.02
50292;BME280;36190;54.980;73.388;2023-02-22T05:52:39;99618.94;;;1.58;75.81
50292;BME280;36190;54.980;73.388;2023-02-22T05:55:08;99611.59;;;1.52;75.80
50292;BME280;36190;54.980;73.388;2023-02-22T05:57:36;99624.84;;;1.72;75.61
50292;BME280;36190;54.980;73.388;2023-02-22T06:00:05;99615.81;;;1.64;75.45
50292;BME280;36190;54.980;73.388;2023-02-22T06:02:33;99620.81;;;1.68;75.45
50292;BME280;36190;54.980;73.388;2023-02-22T06:05:01;99614.31;;;1.72;75.55
50292;BME280;36190;54.980;73.388;2023-02-22T06:07:30;99595.81;;;1.83;75.42
50292;BME280;36190;54.980;73.388;2023-02-22T06:09:57;99603.97;;;1.80;74.80
50292;BME280;36190;54.980;73.388;2023-02-22T06:12:25;99597.44;;;1.74;74.94
50292;BME280;36190;54.980;73.388;2023-02-22T06:14:52;99607.69;;;1.77;75.08
50292;BME280;36190;54.980;73.388;2023-02-22T06:17:20;99609.16;;;1.91;74.98
50292;BME280;36190;54.980;73.388;2023-02-22T06:19:47;99579.84;;;2.06;74.57
50292;BME280;36190;54.980;73.388;2023-02-22T06:22:16;99572.41;;;2.11;74.83
50292;BME280;36190;54.980;73.388;2023-02-22T06:24:45;99568.41;;;2.17;74.22
50292;BME280;36190;54.980;73.388;2023-02-22T06:27:12;99576.59;;;2.24;74.08
50292;BME280;36190;54.980;73.388;2023-02-22T06:29:43;99581.44;;;2.28;73.78
50292;BME280;36190;54.980;73.388;2023-02-22T06:32:11;99583.81;;;2.31;73.78
50292;BME280;36190;54.980;73.388;2023-02-22T06:34:39;99591.88;;;2.40;73.97
50292;BME280;36190;54.980;73.388;2023-02-22T06:37:07;99596.06;;;2.42;73.60
50292;BME280;36190;54.980;73.388;2023-02-22T06:39:35;99585.66;;;2.41;73.42
50292;BME280;36190;54.980;73.388;2023-02-22T06:42:04;99579.41;;;2.42;73.47
50292;BME280;36190;54.980;73.388;2023-02-22T06:44:31;99590.94;;;2.51;73.53
50292;BME280;36190;54.980;73.388;2023-02-22T06:46:59;99590.69;;;2.64;73.19
50292;BME280;36190;54.980;73.388;2023-02-22T06:49:26;99585.03;;;2.78;72.85
50292;BME280;36190;54.980;73.388;2023-02-22T06:51:54;99578.91;;;2.78;72.70
50292;BME280;36190;54.980;73.388;2023-02-22T06:54:21;99570.84;;;2.89;72.76
50292;BME280;36190;54.980;73.388;2023-02-22T06:56:49;99579.75;;;2.98;72.38
50292;BME280;36190;54.980;73.388;2023-02-22T06:59:18;99584.72;;;3.01;72.06
50292;BME280;36190;54.980;73.388;2023-02-22T07:01:45;99574.75;;;3.05;72.00
50292;BME280;36190;54.980;73.388;2023-02-22T07:04:13;99567.13;;;3.11;71.77
50292;BME280;36190;54.980;73.388;2023-02-22T07:06:44;99567.09;;;3.21;71.39
50292;BME280;36190;54.980;73.388;2023-02-22T07:09:12;99557.22;;;3.33;71.43
50292;BME280;36190;54.980;73.388;2023-02-22T07:11:40;99546.25;;;3.38;71.12
50292;BME280;36190;54.980;73.388;2023-02-22T07:14:08;99544.75;;;3.35;70.81
50292;BME280;36190;54.980;73.388;2023-02-22T07:16:37;99550.28;;;3.32;70.48
50292;BME280;36190;54.980;73.388;2023-02-22T07:19:05;99559.19;;;3.21;70.58
50292;BME280;36190;54.980;73.388;2023-02-22T07:21:32;99567.81;;;3.23;70.71
50292;BME280;36190;54.980;73.388;2023-02-22T07:24:00;99544.19;;;3.32;70.51
50292;BME280;36190;54.980;73.388;2023-02-22T07:26:27;99542.81;;;3.27;70.23
50292;BME280;36190;54.980;73.388;2023-02-22T07:28:54;99532.56;;;3.14;70.13
50292;BME280;36190;54.980;73.388;2023-02-22T07:31:22;99539.50;;;3.06;70.05
50292;BME280;36190;54.980;73.388;2023-02-22T07:33:51;99521.75;;;2.88;70.28
50292;BME280;36190;54.980;73.388;2023-02-22T07:36:19;99537.19;;;2.83;70.57
50292;BME280;36190;54.980;73.388;2023-02-22T07:38:46;99528.13;;;2.95;70.66
50292;BME280;36190;54.980;73.388;2023-02-22T07:41:13;99520.63;;;3.10;70.42
50292;BME280;36190;54.980;73.388;2023-02-22T07:43:41;99509.09;;;3.21;70.27
50292;BME280;36190;54.980;73.388;2023-02-22T07:46:09;99489.09;;;3.28;69.86
50292;BME280;36190;54.980;73.388;2023-02-22T07:48:36;99479.72;;;3.16;69.75
50292;BME280;36190;54.980;73.388;2023-02-22T07:51:05;99479.84;;;3.05;70.09
50292;BME280;36190;54.980;73.388;2023-02-22T07:53:34;99468.50;;;2.94;70.03
50292;BME280;36190;54.980;73.388;2023-02-22T07:56:03;99473.78;;;2.84;70.01
50292;BME280;36190;54.980;73.388;2023-02-22T07:58:33;99467.41;;;2.77;70.20
50292;BME280;36190;54.980;73.388;2023-02-22T08:01:01;99472.25;;;2.82;70.38
50292;BME280;36190;54.980;73.388;2023-02-22T08:03:31;99465.75;;;2.86;70.21
50292;BME280;36190;54.980;73.388;2023-02-22T08:06:01;99462.13;;;2.97;70.19
50292;BME280;36190;54.980;73.388;2023-02-22T08:08:30;99454.34;;;3.05;69.84
50292;BME280;36190;54.980;73.388;2023-02-22T08:10:59;99456.56;;;3.10;69.59
50292;BME280;36190;54.980;73.388;2023-02-22T08:13:26;99439.47;;;3.14;69.68
50292;BME280;36190;54.980;73.388;2023-02-22T08:15:54;99438.63;;;3.23;69.50
50292;BME280;36190;54.980;73.388;2023-02-22T08:18:22;99436.78;;;3.34;69.18
50292;BME280;36190;54.980;73.388;2023-02-22T08:20:51;99421.88;;;3.42;69.12
50292;BME280;36190;54.980;73.388;2023-02-22T08:23:20;99427.41;;;3.49;68.87
50292;BME280;36190;54.980;73.388;2023-02-22T08:25:51;99440.00;;;3.55;68.76
50292;BME280;36190;54.980;73.388;2023-02-22T08:28:20;99408.16;;;3.67;68.87
50292;BME280;36190;54.980;73.388;2023-02-22T08:30:48;99416.41;;;4.00;68.37
50292;BME280;36190;54.980;73.388;2023-02-22T08:33:17;99406.03;;;4.17;67.99
50292;BME280;36190;54.980;73.388;2023-02-22T08:35:45;99406.75;;;4.27;67.48
50292;BME280;36190;54.980;73.388;2023-02-22T08:38:17;99389.66;;;4.31;67.47
50292;BME280;36190;54.980;73.388;2023-02-22T08:40:47;99376.97;;;4.17;67.50
50292;BME280;36190;54.980;73.388;2023-02-22T08:43:17;99368.31;;;4.06;67.52
50292;BME280;36190;54.980;73.388;2023-02-22T08:45:45;99377.34;;;3.85;67.79
50292;BME280;36190;54.980;73.388;2023-02-22T08:48:14;99369.78;;;3.72;68.27
50292;BME280;36190;54.980;73.388;2023-02-22T08:50:42;99380.66;;;3.69;68.58
50292;BME280;36190;54.980;73.388;2023-02-22T08:53:11;99369.16;;;3.61;68.66
50292;BME280;36190;54.980;73.388;2023-02-22T08:55:39;99379.13;;;3.67;68.71
50292;BME280;36190;54.980;73.388;2023-02-22T08:58:08;99378.06;;;3.60;68.66
50292;BME280;36190;54.980;73.388;2023-02-22T09:00:38;99375.44;;;3.60;68.92
50292;BME280;36190;54.980;73.388;2023-02-22T09:03:08;99366.13;;;3.55;68.98
50292;BME280;36190;54.980;73.388;2023-02-22T09:05:37;99368.50;;;3.58;68.96
50292;BME280;36190;54.980;73.388;2023-02-22T09:08:05;99364.56;;;3.63;68.92
50292;BME280;36190;54.980;73.388;2023-02-22T09:10:33;99366.47;;;3.70;68.82
50292;BME280;36190;54.980;73.388;2023-02-22T09:13:01;99371.31;;;3.75;68.69
50292;BME280;36190;54.980;73.388;2023-02-22T09:15:30;99362.94;;;3.80;68.42
50292;BME280;36190;54.980;73.388;2023-02-22T09:18:00;99374.34;;;3.80;68.39
50292;BME280;36190;54.980;73.388;2023-02-22T09:20:28;99344.47;;;3.80;68.48
50292;BME280;36190;54.980;73.388;2023-02-22T09:22:56;99355.78;;;3.72;68.41
50292;BME280;36190;54.980;73.388;2023-02-22T09:25:25;99346.63;;;3.66;68.38
50292;BME280;36190;54.980;73.388;2023-02-22T09:27:52;99349.44;;;3.65;68.37
50292;BME280;36190;54.980;73.388;2023-02-22T09:30:24;99352.13;;;3.55;68.53
50292;BME280;36190;54.980;73.388;2023-02-22T09:32:52;99331.59;;;3.77;68.56
50292;BME280;36190;54.980;73.388;2023-02-22T09:35:22;99327.97;;;3.78;68.03
50292;BME280;36190;54.980;73.388;2023-02-22T09:37:53;99335.94;;;3.68;68.04
50292;BME280;36190;54.980;73.388;2023-02-22T09:40:20;99316.94;;;3.64;68.12
50292;BME280;36190;54.980;73.388;2023-02-22T09:43:16;99311.00;;;3.62;68.06
50292;BME280;36190;54.980;73.388;2023-02-22T09:46:05;99308.50;;;3.61;68.16
50292;BME280;36190;54.980;73.388;2023-02-22T09:48:43;99296.22;;;3.51;67.99
50292;BME280;36190;54.980;73.388;2023-02-22T09:51:19;99293.81;;;3.40;68.09
50292;BME280;36190;54.980;73.388;2023-02-22T09:53:55;99290.78;;;3.35;68.22
50292;BME280;36190;54.980;73.388;2023-02-22T09:56:26;99286.38;;;3.25;68.44
50292;BME280;36190;54.980;73.388;2023-02-22T09:58:55;99287.28;;;3.16;68.67
50292;BME280;36190;54.980;73.388;2023-02-22T10:01:27;99295.56;;;3.21;68.71
50292;BME280;36190;54.980;73.388;2023-02-22T10:04:04;99305.13;;;3.22;68.68
50292;BME280;36190;54.980;73.388;2023-02-22T10:06:34;99291.34;;;3.28;68.82
50292;BME280;36190;54.980;73.388;2023-02-22T10:09:03;99284.81;;;3.33;68.57
50292;BME280;36190;54.980;73.388;2023-02-22T10:11:45;99278.25;;;3.37;68.48
50292;BME280;36190;54.980;73.388;2023-02-22T10:14:29;99284.06;;;3.40;68.22
50292;BME280;36190;54.980;73.388;2023-02-22T10:17:05;99277.59;;;3.35;68.36
50292;BME280;36190;54.980;73.388;2023-02-22T10:19:45;99272.63;;;3.32;68.37
50292;BME280;36190;54.980;73.388;2023-02-22T10:22:29;99258.38;;;3.24;68.58
50292;BME280;36190;54.980;73.388;2023-02-22T10:25:00;99251.13;;;3.26;68.57
50292;BME280;36190;54.980;73.388;2023-02-22T10:27:31;99227.91;;;3.12;68.70
50292;BME280;36190;54.980;73.388;2023-02-22T10:30:06;99227.19;;;3.20;68.60
50292;BME280;36190;54.980;73.388;2023-02-22T10:32:41;99225.69;;;3.17;68.67
50292;BME280;36190;54.980;73.388;2023-02-22T10:35:18;99226.88;;;3.23;68.88
50292;BME280;36190;54.980;73.388;2023-02-22T10:37:50;99238.63;;;3.28;68.66
50292;BME280;36190;54.980;73.388;2023-02-22T10:40:20;99230.72;;;3.28;68.65
50292;BME280;36190;54.980;73.388;2023-02-22T10:43:01;99212.84;;;3.22;68.37
50292;BME280;36190;54.980;73.388;2023-02-22T10:45:30;99227.03;;;3.39;68.48
50292;BME280;36190;54.980;73.388;2023-02-22T10:47:59;99232.44;;;3.38;68.30
50292;BME280;36190;54.980;73.388;2023-02-22T10:50:35;99220.78;;;3.40;68.29
50292;BME280;36190;54.980;73.388;2023-02-22T10:53:06;99218.28;;;3.39;68.26
50292;BME280;36190;54.980;73.388;2023-02-22T10:55:34;99207.91;;;3.37;68.43
50292;BME280;36190;54.980;73.388;2023-02-22T10:58:04;99198.88;;;3.40;68.35
50292;BME280;36190;54.980;73.388;2023-02-22T11:00:34;99216.28;;;3.33;68.41
50292;BME280;36190;54.980;73.388;2023-02-22T11:03:05;99206.25;;;3.18;68.45
50292;BME280;36190;54.980;73.388;2023-02-22T11:05:42;99203.84;;;3.07;69.09
50292;BME280;36190;54.980;73.388;2023-02-22T11:08:22;99198.84;;;3.03;69.17
50292;BME280;36190;54.980;73.388;2023-02-22T11:10:53;99201.69;;;2.92;69.30
50292;BME280;36190;54.980;73.388;2023-02-22T11:13:26;99195.94;;;2.79;69.31
50292;BME280;36190;54.980;73.388;2023-02-22T11:15:54;99192.09;;;2.73;69.60
50292;BME280;36190;54.980;73.388;2023-02-22T11:18:26;99193.78;;;2.64;69.86
50292;BME280;36190;54.980;73.388;2023-02-22T11:21:04;99185.13;;;2.54;70.15
50292;BME280;36190;54.980;73.388;2023-02-22T11:23:36;99178.91;;;2.45;70.27
50292;BME280;36190;54.980;73.388;2023-02-22T11:26:07;99169.41;;;2.34;70.39
50292;BME280;36190;54.980;73.388;2023-02-22T11:28:35;99176.06;;;2.28;70.60
50292;BME280;36190;54.980;73.388;2023-02-22T11:31:15;99151.63;;;2.08;70.55
50292;BME280;36190;54.980;73.388;2023-02-22T11:33:50;99174.91;;;2.13;70.92
50292;BME280;36190;54.980;73.388;2023-02-22T11:36:33;99170.47;;;2.03;71.14
50292;BME280;36190;54.980;73.388;2023-02-22T11:39:22;99165.50;;;2.00;71.28
50292;BME280;36190;54.980;73.388;2023-02-22T11:41:50;99168.56;;;1.96;71.45
50292;BME280;36190;54.980;73.388;2023-02-22T11:44:24;99166.75;;;1.96;71.67
50292;BME280;36190;54.980;73.388;2023-02-22T11:46:51;99138.53;;;1.98;71.42
50292;BME280;36190;54.980;73.388;2023-02-22T11:49:23;99138.09;;;1.93;71.36
50292;BME280;36190;54.980;73.388;2023-02-22T11:52:06;99148.63;;;1.93;71.53
50292;BME280;36190;54.980;73.388;2023-02-22T11:54:48;99145.75;;;1.86;71.64
50292;BME280;36190;54.980;73.388;2023-02-22T11:57:30;99125.97;;;1.82;71.79
50292;BME280;36190;54.980;73.388;2023-02-22T12:00:13;99130.13;;;1.75;71.88
50292;BME280;36190;54.980;73.388;2023-02-22T12:02:52;99121.16;;;1.68;72.00
50292;BME280;36190;54.980;73.388;2023-02-22T12:05:29;99113.13;;;1.59;72.31
50292;BME280;36190;54.980;73.388;2023-02-22T12:08:15;99103.09;;;1.45;72.67
50292;BME280;36190;54.980;73.388;2023-02-22T12:10:55;99093.38;;;1.45;72.70
50292;BME280;36190;54.980;73.388;2023-02-22T12:13:33;99080.41;;;1.34;72.89
50292;BME280;36190;54.980;73.388;2023-02-22T12:16:12;99098.38;;;1.39;72.94
50292;BME280;36190;54.980;73.388;2023-02-22T12:18:51;99091.06;;;1.32;73.15
50292;BME280;36190;54.980;73.388;2023-02-22T12:21:27;99093.13;;;1.29;73.25
50292;BME280;36190;54.980;73.388;2023-02-22T12:23:59;99071.28;;;1.28;73.26
50292;BME280;36190;54.980;73.388;2023-02-22T12:26:33;99074.19;;;1.25;73.42
50292;BME280;36190;54.980;73.388;2023-02-22T12:29:07;99075.16;;;1.24;73.66
50292;BME280;36190;54.980;73.388;2023-02-22T12:31:41;99059.53;;;1.22;73.65
50292;BME280;36190;54.980;73.388;2023-02-22T12:34:16;99054.13;;;1.24;73.84
50292;BME280;36190;54.980;73.388;2023-02-22T12:36:48;99048.88;;;1.24;73.66
50292;BME280;36190;54.980;73.388;2023-02-22T12:39:26;99051.38;;;1.26;73.94
50292;BME280;36190;54.980;73.388;2023-02-22T12:41:59;99032.56;;;1.20;73.82
50292;BME280;36190;54.980;73.388;2023-02-22T12:44:34;99056.88;;;1.32;74.08
50292;BME280;36190;54.980;73.388;2023-02-22T12:47:05;99053.03;;;1.36;73.87
50292;BME280;36190;54.980;73.388;2023-02-22T12:49:37;99038.59;;;1.41;73.77
50292;BME280;36190;54.980;73.388;2023-02-22T12:52:13;99035.56;;;1.45;74.11
50292;BME280;36190;54.980;73.388;2023-02-22T12:54:47;99040.00;;;1.45;73.81
50292;BME280;36190;54.980;73.388;2023-02-22T12:57:25;99045.63;;;1.50;73.94
50292;BME280;36190;54.980;73.388;2023-02-22T13:00:00;99035.81;;;1.52;73.92
50292;BME280;36190;54.980;73.388;2023-02-22T13:02:34;99045.19;;;1.55;73.84
50292;BME280;36190;54.980;73.388;2023-02-22T13:05:04;99040.78;;;1.55;73.95
50292;BME280;36190;54.980;73.388;2023-02-22T13:07:41;99030.69;;;1.60;73.89
50292;BME280;36190;54.980;73.388;2023-02-22T13:10:38;99036.63;;;1.62;73.76
50292;BME280;36190;54.980;73.388;2023-02-22T13:13:16;99029.72;;;1.61;73.84
50292;BME280;36190;54.980;73.388;2023-02-22T13:15:52;99030.69;;;1.60;73.74
50292;BME280;36190;54.980;73.388;2023-02-22T13:18:29;99033.31;;;1.60;74.06
50292;BME280;36190;54.980;73.388;2023-02-22T13:21:02;99014.50;;;1.55;73.87
50292;BME280;36190;54.980;73.388;2023-02-22T13:23:38;99023.75;;;1.59;73.91